TAF LFBC
METAR LFBC
LFBC 082200Z AUTO 29010KT 9999 // NSC 06/03 Q1012=
LFBC 082130Z AUTO 32016KT 280V350 9999 // SCT034/// SCT070/// BKN110/// ///CB 07/03 Q1011=
LFBC 082100Z AUTO 36005KT 290V050 9999 FEW012/// SCT039/// BKN056/// ///TCU 06/04 Q1011 TEMPO 31015G25KT 4500 SHRA=
LFBC 082030Z AUTO 27005KT 230V320 9999 // FEW014/// BKN034/// BKN064/// ///TCU 06/04 Q1010=
LFBC 082000Z AUTO 00000KT 9999 // FEW016/// SCT029/// BKN036/// ///CB 05/04 Q1010=
WC LFBC
WS LFBC
WV LFBC